Time,TemperatureF,DewpointF,PressureIn,WindDirection,WindDirectionDegrees,WindSpeedMPH,WindSpeedGustMPH,Humidity,HourlyPrecipIn,Conditions,Clouds,dailyrainin,SolarRadiationWatts/m^2,SoftwareType,DateUTC
2013-08-10 00:04:00,64.8,61.1,30.08,West,260,0.0,0.0,88,0.00,OVC,,0.00,0.0,WeatherDisplay:10.37,2013-08-09 22:04:00,
2013-08-10 00:09:00,64.6,60.9,30.07,West,260,0.0,0.0,88,0.00,OVC,,0.00,0.0,WeatherDisplay:10.37,2013-08-09 22:09:00,
2013-08-10 00:14:00,64.5,60.8,30.08,West,260,0.0,0.0,88,0.00,OVC,,0.00,0.0,WeatherDisplay:10.37,2013-08-09 22:14:00,
2013-08-10 00:19:00,64.4,60.7,30.08,West,260,0.0,1.0,88,0.00,OVC,,0.00,0.0,WeatherDisplay:10.37,2013-08-09 22:19:00,
2013-08-10 00:24:00,64.2,60.6,30.08,West,260,0.8,4.0,88,0.00,OVC,,0.00,0.0,WeatherDisplay:10.37,2013-08-09 22:24:00,
2013-08-10 00:29:00,64.0,60.4,30.07,West,260,0.8,4.0,88,0.00,OVC,,0.00,0.0,WeatherDisplay:10.37,2013-08-09 22:29:00,
2013-08-10 00:34:00,63.9,60.6,30.07,West,260,3.2,5.8,89,0.00,CLR,,0.00,0.0,WeatherDisplay:10.37,2013-08-09 22:34:00,
2013-08-10 00:39:00,63.8,60.5,30.07,West,260,2.8,4.6,89,0.00,CLR,,0.00,0.0,WeatherDisplay:10.37,2013-08-09 22:39:00,
2013-08-10 00:44:00,63.8,60.5,30.07,West,260,0.0,0.0,89,0.00,CLR,,0.00,0.0,WeatherDisplay:10.37,2013-08-09 22:44:00,
2013-08-10 00:49:00,63.8,60.5,30.08,West,260,0.8,5.0,89,0.00,CLR,,0.00,0.0,WeatherDisplay:10.37,2013-08-09 22:49:00,
2013-08-10 00:54:00,63.7,60.4,30.08,West,260,0.0,0.0,89,0.00,CLR,,0.00,0.0,WeatherDisplay:10.37,2013-08-09 22:54:00,
2013-08-10 00:59:00,63.8,60.5,30.08,West,260,0.0,0.0,89,0.00,CLR,,0.00,0.0,WeatherDisplay:10.37,2013-08-09 22:59:00,
2013-08-10 01:04:00,63.8,60.8,30.08,West,262,4.4,6.9,90,0.00,CLR,,0.00,0.0,WeatherDisplay:10.37,2013-08-09 23:04:00,
2013-08-10 01:09:00,63.8,60.8,30.08,West,265,3.0,4.6,90,0.00,CLR,,0.00,0.0,WeatherDisplay:10.37,2013-08-09 23:09:00,
2013-08-10 01:14:00,63.9,60.9,30.08,West,265,3.5,4.6,90,0.00,CLR,,0.00,0.0,WeatherDisplay:10.37,2013-08-09 23:14:00,
2013-08-10 01:19:00,63.9,60.9,30.08,West,265,0.0,0.0,90,0.00,CLR,,0.00,0.0,WeatherDisplay:10.37,2013-08-09 23:19:00,
2013-08-10 01:24:00,63.9,60.9,30.08,West,265,1.4,4.6,90,0.00,CLR,,0.00,0.0,WeatherDisplay:10.37,2013-08-09 23:24:00,
2013-08-10 01:29:00,63.9,60.6,30.07,West,265,0.0,0.0,89,0.00,CLR,,0.00,0.0,WeatherDisplay:10.37,2013-08-09 23:29:00,
2013-08-10 01:34:00,63.8,60.5,30.07,West,265,0.0,0.0,89,0.00,CLR,,0.00,0.0,WeatherDisplay:10.37,2013-08-09 23:34:00,
2013-08-10 01:39:00,63.7,60.4,30.07,West,265,0.0,0.0,89,0.00,CLR,,0.00,0.0,WeatherDisplay:10.37,2013-08-09 23:39:00,
2013-08-10 01:44:00,63.6,60.3,30.07,West,265,0.0,0.0,89,0.00,CLR,,0.00,0.0,WeatherDisplay:10.37,2013-08-09 23:44:00,
2013-08-10 01:49:00,63.5,60.2,30.07,West,265,0.0,0.0,89,0.00,CLR,,0.00,0.0,WeatherDisplay:10.37,2013-08-09 23:49:00,
2013-08-10 01:54:00,63.4,60.1,30.07,West,265,2.5,4.6,89,0.00,CLR,,0.00,0.0,WeatherDisplay:10.37,2013-08-09 23:54:00,
2013-08-10 01:59:00,63.3,60.0,30.08,West,265,0.0,0.0,89,0.00,CLR,,0.00,0.0,WeatherDisplay:10.37,2013-08-09 23:59:00,
2013-08-10 02:04:00,63.2,59.9,30.08,West,265,0.0,0.0,89,0.00,CLR,,0.00,0.0,WeatherDisplay:10.37,2013-08-10 00:04:00,
2013-08-10 02:09:00,63.2,59.9,30.08,West,265,0.0,0.0,89,0.00,CLR,,0.00,0.0,WeatherDisplay:10.37,2013-08-10 00:09:00,
2013-08-10 02:14:00,63.2,59.9,30.08,West,265,0.0,1.2,89,0.00,CLR,,0.00,0.0,WeatherDisplay:10.37,2013-08-10 00:14:00,
2013-08-10 02:19:00,63.2,59.9,30.08,West,265,0.0,0.0,89,0.00,CLR,,0.00,0.0,WeatherDisplay:10.37,2013-08-10 00:19:00,
2013-08-10 02:24:00,63.2,59.9,30.08,West,265,0.0,0.0,89,0.00,CLR,,0.00,0.0,WeatherDisplay:10.37,2013-08-10 00:24:00,
2013-08-10 02:29:00,63.3,59.7,30.08,West,265,1.3,3.5,88,0.00,CLR,,0.00,0.0,WeatherDisplay:10.37,2013-08-10 00:29:00,
2013-08-10 02:34:00,63.3,59.7,30.08,West,265,0.1,2.0,88,0.00,CLR,,0.00,0.0,WeatherDisplay:10.37,2013-08-10 00:34:00,
2013-08-10 02:39:00,63.3,59.7,30.07,West,265,2.3,4.6,88,0.00,CLR,,0.00,0.0,WeatherDisplay:10.37,2013-08-10 00:39:00,
2013-08-10 02:44:00,63.3,59.3,30.07,West,265,1.1,3.5,87,0.00,CLR,,0.00,0.0,WeatherDisplay:10.37,2013-08-10 00:44:00,
2013-08-10 02:49:00,63.3,59.0,30.07,West,265,2.7,4.6,86,0.00,CLR,,0.00,0.0,WeatherDisplay:10.37,2013-08-10 00:49:00,
2013-08-10 02:54:00,63.3,59.0,30.07,West,265,1.1,4.6,86,0.00,CLR,,0.00,0.0,WeatherDisplay:10.37,2013-08-10 00:54:00,
2013-08-10 02:59:00,63.4,59.1,30.07,West,265,4.7,6.9,86,0.00,CLR,,0.00,0.0,WeatherDisplay:10.37,2013-08-10 00:59:00,
2013-08-10 03:04:00,63.4,58.8,30.07,West,265,2.3,3.5,85,0.00,CLR,,0.00,0.0,WeatherDisplay:10.37,2013-08-10 01:04:00,
2013-08-10 03:09:00,63.4,58.5,30.07,WNW,302,3.2,10.0,84,0.00,CLR,,0.00,0.0,WeatherDisplay:10.37,2013-08-10 01:09:00,
2013-08-10 03:14:00,63.4,58.1,30.07,NW,311,2.5,3.5,83,0.00,CLR,,0.00,0.0,WeatherDisplay:10.37,2013-08-10 01:14:00,
2013-08-10 03:15:00,63.5,58.2,30.07,NW,311,1.8,3.5,83,0.00,CLR,,0.00,0.0,WeatherDisplay:10.37,2013-08-10 01:15:00,
2013-08-10 03:20:00,63.5,57.9,30.07,NW,311,3.9,4.0,82,0.00,CLR,,0.00,0.0,WeatherDisplay:10.37,2013-08-10 01:20:00,
2013-08-10 03:25:00,63.5,57.5,30.07,NW,308,4.0,5.8,81,0.00,CLR,,0.00,0.0,WeatherDisplay:10.37,2013-08-10 01:25:00,
2013-08-10 03:30:00,63.5,57.2,30.07,NNW,327,3.5,6.9,80,0.00,CLR,,0.00,0.0,WeatherDisplay:10.37,2013-08-10 01:30:00,
2013-08-10 03:35:00,63.5,57.2,30.07,NW,319,1.8,8.0,80,0.00,SCT,,0.00,0.0,WeatherDisplay:10.37,2013-08-10 01:35:00,
2013-08-10 03:40:00,63.5,56.8,30.07,NW,318,4.6,4.6,79,0.00,SCT,,0.00,0.0,WeatherDisplay:10.37,2013-08-10 01:40:00,
2013-08-10 03:45:00,63.5,56.8,30.07,NNW,327,7.2,11.5,79,0.00,SCT,,0.00,0.0,WeatherDisplay:10.37,2013-08-10 01:45:00,
2013-08-10 03:50:00,63.4,56.8,30.07,NW,311,5.3,8.0,79,0.00,SCT,,0.00,0.0,WeatherDisplay:10.37,2013-08-10 01:50:00,
2013-08-10 03:55:00,63.3,56.3,30.07,NW,326,4.6,9.2,78,0.00,SCT,,0.00,0.0,WeatherDisplay:10.37,2013-08-10 01:55:00,
2013-08-10 04:00:00,63.2,55.8,30.07,NW,319,2.9,6.0,77,0.00,SCT,,0.00,0.0,WeatherDisplay:10.37,2013-08-10 02:00:00,
2013-08-10 04:05:00,63.0,55.7,30.07,NNW,336,5.1,9.2,77,0.00,SCT,,0.00,0.0,WeatherDisplay:10.37,2013-08-10 02:05:00,
2013-08-10 04:10:00,62.8,55.1,30.07,NW,315,6.1,10.4,76,0.00,SCT,,0.00,0.0,WeatherDisplay:10.37,2013-08-10 02:10:00,
2013-08-10 04:15:00,62.7,55.0,30.07,NW,315,1.5,3.5,76,0.00,SCT,,0.00,0.0,WeatherDisplay:10.37,2013-08-10 02:15:00,
2013-08-10 04:20:00,62.7,55.0,30.07,NW,315,0.3,3.5,76,0.00,SCT,,0.00,0.0,WeatherDisplay:10.37,2013-08-10 02:20:00,
2013-08-10 04:25:00,62.6,55.3,30.07,NW,309,3.5,4.0,77,0.00,SCT,,0.00,0.0,WeatherDisplay:10.37,2013-08-10 02:25:00,
2013-08-10 04:30:00,62.5,55.2,30.07,NW,308,2.0,3.5,77,0.00,SCT,,0.00,0.0,WeatherDisplay:10.37,2013-08-10 02:30:00,
2013-08-10 04:35:00,62.4,55.1,30.07,NW,309,3.6,5.8,77,0.00,CLR,,0.00,0.0,WeatherDisplay:10.37,2013-08-10 02:35:00,
2013-08-10 04:40:00,62.4,55.1,30.06,NW,309,1.7,5.8,77,0.00,CLR,,0.00,0.0,WeatherDisplay:10.37,2013-08-10 02:40:00,
2013-08-10 04:45:00,62.2,54.9,30.06,NW,310,3.6,5.0,77,0.00,CLR,,0.00,0.0,WeatherDisplay:10.37,2013-08-10 02:45:00,
2013-08-10 04:50:00,62.1,54.8,30.06,NW,317,4.8,4.8,77,0.00,CLR,,0.00,0.0,WeatherDisplay:10.37,2013-08-10 02:50:00,
2013-08-10 04:55:00,61.9,54.6,30.06,NW,311,4.7,6.9,77,0.00,CLR,,0.00,0.0,WeatherDisplay:10.37,2013-08-10 02:55:00,
2013-08-10 05:00:00,61.8,54.5,30.06,NW,309,2.1,4.0,77,0.00,CLR,,0.00,0.0,WeatherDisplay:10.37,2013-08-10 03:00:00,
2013-08-10 05:05:00,61.7,54.4,30.06,NW,309,0.0,2.3,77,0.00,CLR,,0.00,0.0,WeatherDisplay:10.37,2013-08-10 03:05:00,
2013-08-10 05:10:00,61.6,54.7,30.06,NW,309,0.0,0.0,78,0.00,CLR,,0.00,0.0,WeatherDisplay:10.37,2013-08-10 03:10:00,
2013-08-10 05:15:00,61.4,54.5,30.06,NW,309,1.6,1.6,78,0.00,CLR,,0.00,0.0,WeatherDisplay:10.37,2013-08-10 03:15:00,
2013-08-10 05:20:00,61.2,54.6,30.06,NW,309,0.6,3.5,79,0.00,CLR,,0.00,0.0,WeatherDisplay:10.37,2013-08-10 03:20:00,
2013-08-10 05:25:00,61.0,54.4,30.06,NW,309,2.4,4.6,79,0.00,CLR,,0.00,0.0,WeatherDisplay:10.37,2013-08-10 03:25:00,
2013-08-10 05:30:00,60.9,54.3,30.06,NW,309,1.0,2.3,79,0.00,CLR,,0.00,0.0,WeatherDisplay:10.37,2013-08-10 03:30:00,
2013-08-10 05:35:00,60.7,54.5,30.07,NW,309,1.0,4.0,80,0.00,CLR,,0.00,0.0,WeatherDisplay:10.37,2013-08-10 03:35:00,
2013-08-10 05:40:00,60.6,54.7,30.07,NW,309,1.5,3.5,81,0.00,CLR,,0.00,0.0,WeatherDisplay:10.37,2013-08-10 03:40:00,
2013-08-10 05:45:00,60.5,54.6,30.07,NW,309,1.9,3.5,81,0.00,CLR,,0.00,0.0,WeatherDisplay:10.37,2013-08-10 03:45:00,
2013-08-10 05:50:00,60.4,54.5,30.07,NW,309,0.0,3.5,81,0.00,CLR,,0.00,0.0,WeatherDisplay:10.37,2013-08-10 03:50:00,
2013-08-10 05:55:00,60.3,54.8,30.07,NW,309,0.4,4.6,82,0.00,CLR,,0.00,0.0,WeatherDisplay:10.37,2013-08-10 03:55:00,
2013-08-10 06:00:00,60.2,54.7,30.07,NW,309,0.0,0.0,82,0.00,CLR,,0.00,0.0,WeatherDisplay:10.37,2013-08-10 04:00:00,
2013-08-10 06:01:00,60.2,54.7,30.07,NW,309,0.0,0.0,82,0.00,CLR,,0.00,0.0,WeatherDisplay:10.37,2013-08-10 04:01:00,
2013-08-10 06:06:00,60.2,54.7,30.07,NW,309,0.0,0.0,82,0.00,CLR,,0.00,0.0,WeatherDisplay:10.37,2013-08-10 04:06:00,
2013-08-10 06:11:00,60.2,55.0,30.08,NW,309,2.1,3.5,83,0.00,CLR,,0.00,0.0,WeatherDisplay:10.37,2013-08-10 04:11:00,
2013-08-10 06:16:00,60.1,54.9,30.08,NW,309,1.5,3.5,83,0.00,CLR,,0.00,0.0,WeatherDisplay:10.37,2013-08-10 04:16:00,
2013-08-10 06:21:00,60.1,54.9,30.08,NW,309,0.0,0.0,83,0.00,CLR,,0.00,0.0,WeatherDisplay:10.37,2013-08-10 04:21:00,
2013-08-10 06:26:00,60.2,55.0,30.08,NW,309,0.0,0.0,83,0.00,CLR,,0.00,0.0,WeatherDisplay:10.37,2013-08-10 04:26:00,
2013-08-10 06:31:00,60.3,55.1,30.08,NW,308,3.4,6.9,83,0.00,CLR,,0.00,0.0,WeatherDisplay:10.37,2013-08-10 04:31:00,
2013-08-10 06:36:00,60.5,55.3,30.08,NW,315,4.0,8.1,83,0.00,CLR,,0.00,5.0,WeatherDisplay:10.37,2013-08-10 04:36:00,
2013-08-10 06:41:00,60.8,55.6,30.08,NW,315,4.2,8.1,83,0.00,CLR,,0.00,7.0,WeatherDisplay:10.37,2013-08-10 04:41:00,
2013-08-10 06:46:00,61.1,55.5,30.08,NW,306,4.6,6.9,82,0.00,CLR,,0.00,9.0,WeatherDisplay:10.37,2013-08-10 04:46:00,
2013-08-10 06:51:00,61.2,55.6,30.08,NW,307,3.9,6.9,82,0.00,CLR,,0.00,9.0,WeatherDisplay:10.37,2013-08-10 04:51:00,
2013-08-10 06:56:00,61.3,55.7,30.08,NW,319,2.2,5.8,82,0.00,CLR,,0.00,12.0,WeatherDisplay:10.37,2013-08-10 04:56:00,
2013-08-10 07:01:00,61.3,55.4,30.08,NW,315,2.5,5.0,81,0.00,CLR,,0.00,16.0,WeatherDisplay:10.37,2013-08-10 05:01:00,
2013-08-10 07:06:00,61.4,55.8,30.07,NW,326,5.7,10.4,82,0.00,CLR,,0.00,21.0,WeatherDisplay:10.37,2013-08-10 05:06:00,
2013-08-10 07:11:00,61.5,55.6,30.08,WNW,300,5.4,8.1,81,0.00,CLR,,0.00,26.0,WeatherDisplay:10.37,2013-08-10 05:11:00,
2013-08-10 07:16:00,61.5,55.6,30.08,West,261,3.1,4.6,81,0.00,CLR,,0.00,28.0,WeatherDisplay:10.37,2013-08-10 05:16:00,
2013-08-10 07:21:00,61.5,55.6,30.09,WNW,288,4.7,8.1,81,0.00,OVC,,0.00,28.0,WeatherDisplay:10.37,2013-08-10 05:21:00,
2013-08-10 07:26:00,61.5,55.6,30.09,WNW,290,1.2,3.5,81,0.00,OVC,,0.00,30.0,WeatherDisplay:10.37,2013-08-10 05:26:00,
2013-08-10 07:31:00,61.5,55.6,30.08,WNW,290,0.0,0.0,81,0.00,OVC,,0.00,32.0,WeatherDisplay:10.37,2013-08-10 05:31:00,
2013-08-10 07:36:00,61.5,55.6,30.08,WNW,292,1.8,3.5,81,0.00,OVC,,0.00,39.0,WeatherDisplay:10.37,2013-08-10 05:36:00,
2013-08-10 07:41:00,61.5,55.6,30.09,WNW,292,0.0,0.0,81,0.00,OVC,,0.00,47.0,WeatherDisplay:10.37,2013-08-10 05:41:00,
2013-08-10 07:46:00,61.5,55.6,30.09,WNW,292,0.0,0.0,81,0.00,OVC,,0.00,54.0,WeatherDisplay:10.37,2013-08-10 05:46:00,
2013-08-10 07:51:00,61.6,55.7,30.09,WNW,292,2.1,3.5,81,0.00,OVC,,0.00,54.0,WeatherDisplay:10.37,2013-08-10 05:51:00,
2013-08-10 07:56:00,61.7,55.8,30.09,WNW,292,0.2,1.2,81,0.00,OVC,,0.00,72.0,WeatherDisplay:10.37,2013-08-10 05:56:00,
2013-08-10 08:01:00,61.7,55.8,30.09,WNW,292,2.4,3.5,81,0.00,OVC,,0.00,76.0,WeatherDisplay:10.37,2013-08-10 06:01:00,
2013-08-10 08:06:00,61.7,55.8,30.09,WNW,292,0.0,0.0,81,0.00,OVC,,0.00,88.0,WeatherDisplay:10.37,2013-08-10 06:06:00,
2013-08-10 08:11:00,61.8,55.9,30.09,WNW,292,1.4,4.6,81,0.00,OVC,,0.00,90.0,WeatherDisplay:10.37,2013-08-10 06:11:00,
2013-08-10 08:16:00,61.9,55.6,30.09,WNW,292,2.8,4.0,80,0.00,OVC,,0.00,95.0,WeatherDisplay:10.37,2013-08-10 06:16:00,
2013-08-10 08:21:00,62.0,55.7,30.09,WNW,295,4.2,8.1,80,0.00,OVC,,0.00,104.0,WeatherDisplay:10.37,2013-08-10 06:21:00,
2013-08-10 08:26:00,62.1,55.5,30.09,NW,320,5.7,6.9,79,0.00,OVC,,0.00,114.0,WeatherDisplay:10.37,2013-08-10 06:26:00,
2013-08-10 08:31:00,62.2,55.6,30.09,NNW,329,3.9,5.8,79,0.00,OVC,,0.00,128.0,WeatherDisplay:10.37,2013-08-10 06:31:00,
2013-08-10 08:36:00,62.4,55.8,30.09,NNE,22,4.3,8.1,79,0.00,OVC,,0.00,130.0,WeatherDisplay:10.37,2013-08-10 06:36:00,
2013-08-10 08:41:00,62.5,56.2,30.09,NW,308,3.9,5.8,80,0.00,OVC,,0.00,141.0,WeatherDisplay:10.37,2013-08-10 06:41:00,
2013-08-10 08:46:00,62.7,56.4,30.09,WNW,302,3.5,6.9,80,0.00,OVC,,0.00,134.0,WeatherDisplay:10.37,2013-08-10 06:46:00,
2013-08-10 08:51:00,62.7,56.4,30.09,WNW,282,5.3,10.4,80,0.00,OVC,,0.00,148.0,WeatherDisplay:10.37,2013-08-10 06:51:00,
2013-08-10 08:56:00,62.7,56.1,30.09,WNW,290,5.1,9.2,79,0.00,OVC,,0.00,144.0,WeatherDisplay:10.37,2013-08-10 06:56:00,
2013-08-10 09:01:00,62.6,56.3,30.10,WNW,300,2.5,4.6,80,0.00,OVC,,0.00,162.0,WeatherDisplay:10.37,2013-08-10 07:01:00,
2013-08-10 09:06:00,62.6,56.0,30.10,WNW,288,7.2,11.5,79,0.00,OVC,,0.00,160.0,WeatherDisplay:10.37,2013-08-10 07:06:00,
2013-08-10 09:11:00,62.6,56.0,30.10,WNW,289,3.0,5.8,79,0.00,OVC,,0.00,176.0,WeatherDisplay:10.37,2013-08-10 07:11:00,
2013-08-10 09:16:00,62.6,55.6,30.10,WNW,295,4.6,9.2,78,0.00,BKN,,0.00,206.0,WeatherDisplay:10.37,2013-08-10 07:16:00,
2013-08-10 09:21:00,62.7,56.1,30.10,WNW,299,4.8,8.1,79,0.00,BKN,,0.00,214.0,WeatherDisplay:10.37,2013-08-10 07:21:00,
2013-08-10 09:29:00,62.9,55.9,30.10,WNW,287,5.9,6.9,78,0.00,BKN,,0.00,213.0,WeatherDisplay:10.37,2013-08-10 07:29:00,
2013-08-10 09:34:00,63.0,56.0,30.10,WNW,294,4.5,8.1,78,0.00,BKN,,0.00,257.0,WeatherDisplay:10.37,2013-08-10 07:34:00,
2013-08-10 09:39:00,63.1,56.1,30.10,West,272,2.9,9.2,78,0.00,BKN,,0.00,248.0,WeatherDisplay:10.37,2013-08-10 07:39:00,
2013-08-10 09:44:00,63.1,55.8,30.10,WNW,288,5.5,9.2,77,0.00,BKN,,0.00,267.0,WeatherDisplay:10.37,2013-08-10 07:44:00,
2013-08-10 09:49:00,63.1,55.8,30.10,WNW,299,5.1,5.8,77,0.00,BKN,,0.00,301.0,WeatherDisplay:10.37,2013-08-10 07:49:00,
2013-08-10 09:54:00,63.1,55.8,30.10,NW,315,7.0,13.0,77,0.00,BKN,,0.00,374.0,WeatherDisplay:10.37,2013-08-10 07:54:00,
2013-08-10 09:59:00,63.1,55.8,30.10,WNW,286,3.6,7.0,77,0.00,BKN,,0.00,250.0,WeatherDisplay:10.37,2013-08-10 07:59:00,
2013-08-10 10:04:00,63.1,55.0,30.10,WNW,288,6.4,10.4,75,0.00,FEW,,0.00,295.0,WeatherDisplay:10.37,2013-08-10 08:04:00,
2013-08-10 10:09:00,63.2,54.8,30.10,West,271,6.4,10.4,74,0.00,FEW,,0.00,320.0,WeatherDisplay:10.37,2013-08-10 08:09:00,
2013-08-10 10:14:00,63.1,53.9,30.11,West,269,4.1,11.5,72,0.00,FEW,,0.00,427.0,WeatherDisplay:10.37,2013-08-10 08:14:00,
2013-08-10 10:19:00,63.3,54.5,30.11,WSW,258,6.1,9.2,73,0.00,FEW,,0.00,262.0,WeatherDisplay:10.37,2013-08-10 08:19:00,
2013-08-10 10:24:00,63.4,54.6,30.11,West,265,7.5,10.4,73,0.00,FEW,,0.00,216.0,WeatherDisplay:10.37,2013-08-10 08:24:00,
2013-08-10 10:29:00,63.5,54.7,30.11,NW,304,8.4,12.7,73,0.00,FEW,,0.00,701.0,WeatherDisplay:10.37,2013-08-10 08:29:00,
2013-08-10 10:34:00,63.7,54.9,30.11,WNW,290,6.5,8.1,73,0.00,FEW,,0.00,747.0,WeatherDisplay:10.37,2013-08-10 08:34:00,
2013-08-10 10:39:00,63.8,55.3,30.11,NW,307,6.9,11.5,74,0.00,FEW,,0.00,197.0,WeatherDisplay:10.37,2013-08-10 08:39:00,
2013-08-10 10:44:00,63.3,54.1,30.11,WNW,287,7.1,11.5,72,0.00,FEW,,0.00,299.0,WeatherDisplay:10.37,2013-08-10 08:44:00,
2013-08-10 10:49:00,63.3,54.5,30.11,WNW,284,6.1,11.5,73,0.00,FEW,,0.00,169.0,WeatherDisplay:10.37,2013-08-10 08:49:00,
2013-08-10 10:54:00,63.1,54.7,30.11,West,273,7.4,8.1,74,0.00,FEW,,0.00,251.0,WeatherDisplay:10.37,2013-08-10 08:54:00,
2013-08-10 10:59:00,63.2,54.4,30.11,NW,305,4.2,8.1,73,0.00,FEW,,0.00,251.0,WeatherDisplay:10.37,2013-08-10 08:59:00,
2013-08-10 11:04:00,63.4,54.9,30.11,WNW,300,10.5,12.7,74,0.00,FEW,,0.00,130.0,WeatherDisplay:10.37,2013-08-10 09:04:00,
2013-08-10 11:09:00,63.0,54.6,30.11,WNW,301,7.5,11.5,74,0.00,FEW,,0.00,200.0,WeatherDisplay:10.37,2013-08-10 09:09:00,
2013-08-10 11:14:00,62.7,54.3,30.11,WNW,302,9.9,17.3,74,0.00,FEW,,0.00,237.0,WeatherDisplay:10.37,2013-08-10 09:14:00,
2013-08-10 11:19:00,62.7,53.9,30.11,WNW,300,8.4,11.5,73,0.00,FEW,,0.00,262.0,WeatherDisplay:10.37,2013-08-10 09:19:00,
2013-08-10 11:24:00,63.0,54.2,30.11,NNW,334,7.5,13.8,73,0.00,SCT,,0.00,220.0,WeatherDisplay:10.37,2013-08-10 09:24:00,
2013-08-10 11:29:00,63.1,53.9,30.12,NNW,334,8.1,11.5,72,0.00,SCT,,0.00,225.0,WeatherDisplay:10.37,2013-08-10 09:29:00,
2013-08-10 11:34:00,62.9,53.7,30.12,WNW,300,6.3,6.9,72,0.00,BKN,,0.00,244.0,WeatherDisplay:10.37,2013-08-10 09:34:00,
2013-08-10 11:39:00,62.7,53.1,30.12,WNW,301,7.1,16.1,71,0.00,BKN,,0.00,234.0,WeatherDisplay:10.37,2013-08-10 09:39:00,
2013-08-10 11:44:00,62.6,53.0,30.12,NW,315,6.2,12.7,71,0.00,BKN,,0.00,352.0,WeatherDisplay:10.37,2013-08-10 09:44:00,
2013-08-10 11:49:00,63.1,53.5,30.12,WNW,293,6.7,18.4,71,0.00,BKN,,0.00,408.0,WeatherDisplay:10.37,2013-08-10 09:49:00,
2013-08-10 11:54:00,63.6,53.2,30.12,North,356,10.7,11.5,69,0.00,BKN,,0.00,427.0,WeatherDisplay:10.37,2013-08-10 09:54:00,
2013-08-10 11:59:00,63.7,53.3,30.12,NW,311,7.5,13.8,69,0.00,BKN,,0.00,248.0,WeatherDisplay:10.37,2013-08-10 09:59:00,
2013-08-10 12:04:00,63.3,52.9,30.12,NW,320,5.9,11.5,69,0.00,OVC,,0.00,213.0,WeatherDisplay:10.37,2013-08-10 10:04:00,
2013-08-10 12:09:00,63.0,52.6,30.12,WNW,287,4.6,8.1,69,0.00,OVC,,0.00,207.0,WeatherDisplay:10.37,2013-08-10 10:09:00,
2013-08-10 12:14:00,62.8,52.8,30.12,WNW,297,6.6,11.5,70,0.00,OVC,,0.00,193.0,WeatherDisplay:10.37,2013-08-10 10:14:00,
2013-08-10 12:19:00,62.7,52.8,30.12,NW,319,5.6,17.3,70,0.00,OVC,,0.00,160.0,WeatherDisplay:10.37,2013-08-10 10:19:00,
2013-08-10 12:24:00,62.6,53.0,30.13,WNW,296,6.8,10.4,71,0.00,OVC,,0.00,171.0,WeatherDisplay:10.37,2013-08-10 10:24:00,
2013-08-10 12:29:00,62.5,52.9,30.13,NW,318,8.6,10.4,71,0.00,OVC,,0.00,227.0,WeatherDisplay:10.37,2013-08-10 10:29:00,
2013-08-10 12:34:00,62.5,52.2,30.13,NW,307,12.2,15.0,69,0.00,OVC,,0.00,253.0,WeatherDisplay:10.37,2013-08-10 10:34:00,
2013-08-10 12:39:00,62.5,51.8,30.13,NW,323,7.3,11.5,68,0.00,OVC,,0.00,276.0,WeatherDisplay:10.37,2013-08-10 10:39:00,
2013-08-10 12:44:00,62.7,50.7,30.13,WNW,290,6.0,10.4,65,0.00,BKN,,0.00,313.0,WeatherDisplay:10.37,2013-08-10 10:44:00,
2013-08-10 12:49:00,62.8,51.2,30.13,West,279,8.1,12.0,66,0.00,BKN,,0.00,327.0,WeatherDisplay:10.37,2013-08-10 10:49:00,
2013-08-10 12:54:00,62.9,50.9,30.13,NW,325,5.6,13.0,65,0.00,BKN,,0.00,360.0,WeatherDisplay:10.37,2013-08-10 10:54:00,
2013-08-10 12:59:00,63.2,51.2,30.14,NW,313,4.6,9.2,65,0.00,BKN,,0.00,378.0,WeatherDisplay:10.37,2013-08-10 10:59:00,
2013-08-10 13:04:00,63.3,50.9,30.14,NW,319,11.0,15.0,64,0.00,FEW,,0.00,415.0,WeatherDisplay:10.37,2013-08-10 11:04:00,
2013-08-10 13:09:00,63.1,49.4,30.14,NW,308,7.2,15.0,61,0.00,FEW,,0.00,489.0,WeatherDisplay:10.37,2013-08-10 11:09:00,
2013-08-10 13:14:00,63.5,48.9,30.14,NW,313,8.9,11.5,59,0.00,FEW,,0.00,531.0,WeatherDisplay:10.37,2013-08-10 11:14:00,
2013-08-10 13:19:00,63.8,48.7,30.14,NW,314,9.0,16.1,58,0.00,FEW,,0.00,568.0,WeatherDisplay:10.37,2013-08-10 11:19:00,
2013-08-10 13:24:00,64.0,48.4,30.14,NW,305,11.7,15.0,57,0.00,FEW,,0.00,526.0,WeatherDisplay:10.37,2013-08-10 11:24:00,
2013-08-10 13:29:00,64.0,48.0,30.14,NW,307,8.3,11.5,56,0.00,FEW,,0.00,536.0,WeatherDisplay:10.37,2013-08-10 11:29:00,
2013-08-10 13:34:00,64.3,46.3,30.14,NW,317,6.8,17.0,52,0.00,FEW,,0.00,654.0,WeatherDisplay:10.37,2013-08-10 11:34:00,
2013-08-10 13:39:00,64.4,45.9,30.14,WNW,284,10.6,17.0,51,0.00,FEW,,0.00,555.0,WeatherDisplay:10.37,2013-08-10 11:39:00,
2013-08-10 13:44:00,64.5,47.0,30.14,West,275,7.6,17.3,53,0.00,FEW,,0.00,766.0,WeatherDisplay:10.37,2013-08-10 11:44:00,
2013-08-10 13:49:00,64.7,46.1,30.14,NW,321,7.7,11.5,51,0.00,FEW,,0.00,536.0,WeatherDisplay:10.37,2013-08-10 11:49:00,
2013-08-10 13:54:00,64.5,47.0,30.14,WNW,298,9.2,14.0,53,0.00,FEW,,0.00,592.0,WeatherDisplay:10.37,2013-08-10 11:54:00,
2013-08-10 13:59:00,64.7,47.6,30.14,WNW,288,5.1,9.2,54,0.00,FEW,,0.00,592.0,WeatherDisplay:10.37,2013-08-10 11:59:00,
2013-08-10 14:04:00,64.6,46.6,30.14,NW,323,7.0,10.4,52,0.00,SCT,,0.00,708.0,WeatherDisplay:10.37,2013-08-10 12:04:00,
2013-08-10 14:09:00,64.6,46.6,30.14,WNW,296,8.3,13.8,52,0.00,BKN,,0.00,253.0,WeatherDisplay:10.37,2013-08-10 12:09:00,
2013-08-10 14:14:00,65.0,47.4,30.14,NW,311,9.1,13.8,53,0.00,SCT,,0.00,659.0,WeatherDisplay:10.37,2013-08-10 12:14:00,
2013-08-10 14:19:00,65.2,47.6,30.14,NW,304,3.1,11.0,53,0.00,BKN,,0.00,295.0,WeatherDisplay:10.37,2013-08-10 12:19:00,
2013-08-10 14:24:00,64.5,46.5,30.15,NNW,331,6.2,11.5,52,0.00,BKN,,0.00,278.0,WeatherDisplay:10.37,2013-08-10 12:24:00,
2013-08-10 14:29:00,64.7,46.1,30.15,WNW,298,10.8,12.7,51,0.00,FEW,,0.00,795.0,WeatherDisplay:10.37,2013-08-10 12:29:00,
2013-08-10 14:34:00,64.3,46.8,30.15,West,279,4.7,11.5,53,0.00,SCT,,0.00,332.0,WeatherDisplay:10.37,2013-08-10 12:34:00,
2013-08-10 14:39:00,64.6,47.6,30.15,WNW,295,9.4,12.0,54,0.00,SCT,,0.00,863.0,WeatherDisplay:10.37,2013-08-10 12:39:00,
2013-08-10 14:44:00,64.5,47.0,30.14,NW,304,10.6,11.5,53,0.00,SCT,,0.00,536.0,WeatherDisplay:10.37,2013-08-10 12:44:00,
2013-08-10 14:49:00,64.6,48.0,30.15,West,263,7.0,9.0,55,0.00,SCT,,0.00,714.0,WeatherDisplay:10.37,2013-08-10 12:49:00,
2013-08-10 14:54:00,64.8,47.7,30.15,West,275,5.9,15.0,54,0.00,SCT,,0.00,343.0,WeatherDisplay:10.37,2013-08-10 12:54:00,
2013-08-10 14:59:00,64.7,48.1,30.15,WNW,302,6.7,11.0,55,0.00,SCT,,0.00,612.0,WeatherDisplay:10.37,2013-08-10 12:59:00,
2013-08-10 15:04:00,64.5,47.0,30.15,WNW,288,8.3,15.0,53,0.00,SCT,,0.00,367.0,WeatherDisplay:10.37,2013-08-10 13:04:00,
2013-08-10 15:09:00,64.6,48.0,30.15,WNW,292,8.7,13.8,55,0.00,BKN,,0.00,380.0,WeatherDisplay:10.37,2013-08-10 13:09:00,
2013-08-10 15:14:00,64.2,48.6,30.15,WNW,300,7.3,13.0,57,0.00,BKN,,0.00,272.0,WeatherDisplay:10.37,2013-08-10 13:14:00,
2013-08-10 15:19:00,63.7,47.7,30.15,WNW,302,6.9,9.2,56,0.00,BKN,,0.00,278.0,WeatherDisplay:10.37,2013-08-10 13:19:00,
2013-08-10 15:24:00,63.7,49.1,30.15,WNW,293,3.7,5.8,59,0.00,BKN,,0.00,322.0,WeatherDisplay:10.37,2013-08-10 13:24:00,
2013-08-10 15:29:00,63.7,49.1,30.15,NW,306,5.7,9.2,59,0.00,BKN,,0.00,225.0,WeatherDisplay:10.37,2013-08-10 13:29:00,
2013-08-10 15:34:00,63.6,49.0,30.14,WNW,293,7.7,9.0,59,0.00,SCT,,0.00,415.0,WeatherDisplay:10.37,2013-08-10 13:34:00,
2013-08-10 15:39:00,63.8,49.6,30.14,WNW,297,8.3,11.0,60,0.00,SCT,,0.00,218.0,WeatherDisplay:10.37,2013-08-10 13:39:00,
2013-08-10 15:44:00,63.2,49.1,30.15,NNW,337,9.9,11.5,60,0.00,SCT,,0.00,155.0,WeatherDisplay:10.37,2013-08-10 13:44:00,
2013-08-10 15:49:00,62.9,50.1,30.15,WNW,293,5.4,8.1,63,0.00,SCT,,0.00,171.0,WeatherDisplay:10.37,2013-08-10 13:49:00,
2013-08-10 15:54:00,62.8,50.0,30.15,WNW,300,4.9,6.9,63,0.00,SCT,,0.00,192.0,WeatherDisplay:10.37,2013-08-10 13:54:00,
2013-08-10 15:59:00,62.9,50.5,30.15,NNW,328,10.3,15.0,64,0.00,SCT,,0.00,274.0,WeatherDisplay:10.37,2013-08-10 13:59:00,
2013-08-10 16:04:00,62.8,48.2,30.15,WNW,296,10.7,16.1,59,0.00,SCT,,0.00,316.0,WeatherDisplay:10.37,2013-08-10 14:04:00,
2013-08-10 16:09:00,63.1,48.5,30.15,NW,312,6.5,10.4,59,0.00,SCT,,0.00,388.0,WeatherDisplay:10.37,2013-08-10 14:09:00,
2013-08-10 16:14:00,63.3,49.2,30.15,WNW,288,6.0,11.5,60,0.00,SCT,,0.00,279.0,WeatherDisplay:10.37,2013-08-10 14:14:00,
2013-08-10 16:19:00,63.4,50.1,30.15,WNW,299,4.9,8.1,62,0.00,SCT,,0.00,292.0,WeatherDisplay:10.37,2013-08-10 14:19:00,
2013-08-10 16:24:00,63.5,50.2,30.15,West,275,8.3,13.8,62,0.00,SCT,,0.00,283.0,WeatherDisplay:10.37,2013-08-10 14:24:00,
2013-08-10 16:29:00,63.5,50.2,30.15,WNW,300,7.1,10.4,62,0.00,SCT,,0.00,294.0,WeatherDisplay:10.37,2013-08-10 14:29:00,
2013-08-10 16:34:00,63.5,50.7,30.15,West,272,5.7,9.2,63,0.00,SCT,,0.00,309.0,WeatherDisplay:10.37,2013-08-10 14:34:00,
2013-08-10 16:39:00,63.5,50.7,30.15,West,267,4.8,9.2,63,0.00,SCT,,0.00,206.0,WeatherDisplay:10.37,2013-08-10 14:39:00,
2013-08-10 16:44:00,63.5,50.7,30.15,NW,313,6.4,11.5,63,0.00,SCT,,0.00,237.0,WeatherDisplay:10.37,2013-08-10 14:44:00,
2013-08-10 16:49:00,63.4,50.1,30.15,WNW,290,7.7,11.5,62,0.00,SCT,,0.00,265.0,WeatherDisplay:10.37,2013-08-10 14:49:00,
2013-08-10 16:54:00,63.3,50.5,30.15,West,278,3.0,5.8,63,0.00,SCT,,0.00,248.0,WeatherDisplay:10.37,2013-08-10 14:54:00,
2013-08-10 16:59:00,63.3,50.5,30.15,WNW,302,5.8,9.2,63,0.00,SCT,,0.00,223.0,WeatherDisplay:10.37,2013-08-10 14:59:00,
2013-08-10 17:04:00,63.2,49.9,30.15,WNW,288,5.1,9.2,62,0.00,FEW,,0.00,195.0,WeatherDisplay:10.37,2013-08-10 15:04:00,
2013-08-10 17:10:00,63.1,49.8,30.15,West,279,4.7,9.2,62,0.00,FEW,,0.00,236.0,WeatherDisplay:10.37,2013-08-10 15:10:00,
2013-08-10 17:15:00,63.1,49.8,30.14,WSW,255,8.2,11.5,62,0.00,FEW,,0.00,218.0,WeatherDisplay:10.37,2013-08-10 15:15:00,
2013-08-10 17:20:00,63.3,50.5,30.15,WNW,300,3.7,9.2,63,0.00,FEW,,0.00,533.0,WeatherDisplay:10.37,2013-08-10 15:20:00,
2013-08-10 17:25:00,64.3,51.0,30.15,West,267,5.2,5.2,62,0.00,FEW,,0.00,584.0,WeatherDisplay:10.37,2013-08-10 15:25:00,
2013-08-10 17:30:00,64.6,51.3,30.15,WNW,294,6.0,10.4,62,0.00,FEW,,0.00,227.0,WeatherDisplay:10.37,2013-08-10 15:30:00,
2013-08-10 17:35:00,64.4,50.2,30.15,West,265,6.1,10.4,60,0.00,BKN,,0.00,274.0,WeatherDisplay:10.37,2013-08-10 15:35:00,
2013-08-10 17:40:00,64.2,50.9,30.15,West,271,5.3,6.9,62,0.00,BKN,,0.00,197.0,WeatherDisplay:10.37,2013-08-10 15:40:00,
2013-08-10 17:45:00,63.8,50.5,30.15,WNW,301,3.4,6.9,62,0.00,BKN,,0.00,172.0,WeatherDisplay:10.37,2013-08-10 15:45:00,
2013-08-10 17:50:00,63.5,50.7,30.14,WNW,298,2.8,5.0,63,0.00,BKN,,0.00,160.0,WeatherDisplay:10.37,2013-08-10 15:50:00,
2013-08-10 17:55:00,63.4,50.6,30.14,West,277,4.5,8.1,63,0.00,BKN,,0.00,169.0,WeatherDisplay:10.37,2013-08-10 15:55:00,
2013-08-10 18:00:00,63.3,50.5,30.14,West,264,6.0,10.4,63,0.00,BKN,,0.00,186.0,WeatherDisplay:10.37,2013-08-10 16:00:00,
2013-08-10 18:05:00,63.2,50.4,30.14,WNW,288,3.7,6.9,63,0.00,BKN,,0.00,200.0,WeatherDisplay:10.37,2013-08-10 16:05:00,
2013-08-10 18:10:00,63.3,50.5,30.14,WNW,284,5.8,8.1,63,0.00,BKN,,0.00,199.0,WeatherDisplay:10.37,2013-08-10 16:10:00,
2013-08-10 18:15:00,63.5,51.1,30.14,West,265,3.8,8.1,64,0.00,SCT,,0.00,543.0,WeatherDisplay:10.37,2013-08-10 16:15:00,
2013-08-10 18:20:00,64.4,51.1,30.14,West,265,4.8,6.0,62,0.00,FEW,,0.00,202.0,WeatherDisplay:10.37,2013-08-10 16:20:00,
2013-08-10 18:25:00,64.3,51.0,30.14,West,270,5.8,9.2,62,0.00,SCT,,0.00,281.0,WeatherDisplay:10.37,2013-08-10 16:25:00,
2013-08-10 18:30:00,64.9,51.1,30.14,West,265,5.5,8.0,61,0.00,FEW,,0.00,213.0,WeatherDisplay:10.37,2013-08-10 16:30:00,
2013-08-10 18:35:00,64.9,50.7,30.14,West,276,3.8,8.1,60,0.00,FEW,,0.00,188.0,WeatherDisplay:10.37,2013-08-10 16:35:00,
2013-08-10 18:40:00,64.4,50.6,30.14,West,271,5.8,6.9,61,0.00,FEW,,0.00,193.0,WeatherDisplay:10.37,2013-08-10 16:40:00,
2013-08-10 18:45:00,64.0,50.3,30.14,WNW,298,9.0,11.5,61,0.00,FEW,,0.00,155.0,WeatherDisplay:10.37,2013-08-10 16:45:00,
2013-08-10 18:50:00,63.7,50.4,30.14,WNW,296,4.7,8.1,62,0.00,FEW,,0.00,311.0,WeatherDisplay:10.37,2013-08-10 16:50:00,
2013-08-10 18:55:00,63.8,50.5,30.14,West,272,8.0,11.5,62,0.00,FEW,,0.00,169.0,WeatherDisplay:10.37,2013-08-10 16:55:00,
2013-08-10 19:00:00,63.6,50.3,30.14,WNW,297,3.3,6.9,62,0.00,FEW,,0.00,176.0,WeatherDisplay:10.37,2013-08-10 17:00:00,
2013-08-10 19:05:00,63.6,50.8,30.14,WNW,294,2.5,5.8,63,0.00,FEW,,0.00,160.0,WeatherDisplay:10.37,2013-08-10 17:05:00,
2013-08-10 19:10:00,63.4,49.7,30.14,WNW,300,3.9,8.1,61,0.00,FEW,,0.00,144.0,WeatherDisplay:10.37,2013-08-10 17:10:00,
2013-08-10 19:15:00,63.3,50.5,30.14,WNW,282,3.8,9.0,63,0.00,FEW,,0.00,139.0,WeatherDisplay:10.37,2013-08-10 17:15:00,
2013-08-10 19:20:00,63.3,50.5,30.14,WNW,286,6.7,10.4,63,0.00,FEW,,0.00,190.0,WeatherDisplay:10.37,2013-08-10 17:20:00,
2013-08-10 19:25:00,63.3,50.5,30.14,West,270,5.0,9.2,63,0.00,FEW,,0.00,134.0,WeatherDisplay:10.37,2013-08-10 17:25:00,
2013-08-10 19:30:00,63.2,50.8,30.14,West,275,2.5,6.9,64,0.00,FEW,,0.00,113.0,WeatherDisplay:10.37,2013-08-10 17:30:00,
2013-08-10 19:35:00,63.2,50.8,30.14,West,270,5.5,9.2,64,0.00,SCT,,0.00,104.0,WeatherDisplay:10.37,2013-08-10 17:35:00,
2013-08-10 19:40:00,63.1,50.7,30.14,West,272,6.0,10.4,64,0.00,FEW,,0.00,188.0,WeatherDisplay:10.37,2013-08-10 17:40:00,
2013-08-10 19:45:00,63.4,51.0,30.14,WNW,296,2.4,5.8,64,0.00,FEW,,0.00,195.0,WeatherDisplay:10.37,2013-08-10 17:45:00,
2013-08-10 19:50:00,63.9,51.0,30.14,West,274,6.0,9.2,63,0.00,FEW,,0.00,155.0,WeatherDisplay:10.37,2013-08-10 17:50:00,
2013-08-10 19:55:00,63.8,50.9,30.14,WNW,294,4.6,6.9,63,0.00,FEW,,0.00,121.0,WeatherDisplay:10.37,2013-08-10 17:55:00,
2013-08-10 20:00:00,63.5,50.7,30.13,WNW,292,4.0,6.9,63,0.00,FEW,,0.00,63.0,WeatherDisplay:10.37,2013-08-10 18:00:00,
2013-08-10 20:05:00,63.3,50.9,30.13,WNW,290,3.7,4.6,64,0.00,FEW,,0.00,51.0,WeatherDisplay:10.37,2013-08-10 18:05:00,
2013-08-10 20:10:00,62.9,50.5,30.13,WNW,295,5.0,7.0,64,0.00,FEW,,0.00,81.0,WeatherDisplay:10.37,2013-08-10 18:10:00,
2013-08-10 20:15:00,62.6,50.6,30.13,WNW,296,4.8,9.2,65,0.00,FEW,,0.00,44.0,WeatherDisplay:10.37,2013-08-10 18:15:00,
2013-08-10 20:20:00,62.3,50.4,30.13,WNW,291,3.9,6.9,65,0.00,FEW,,0.00,37.0,WeatherDisplay:10.37,2013-08-10 18:20:00,
2013-08-10 20:25:00,62.0,50.5,30.13,WNW,288,4.1,5.8,66,0.00,FEW,,0.00,28.0,WeatherDisplay:10.37,2013-08-10 18:25:00,
2013-08-10 20:30:00,61.8,50.7,30.13,WNW,288,2.8,3.5,67,0.00,FEW,,0.00,28.0,WeatherDisplay:10.37,2013-08-10 18:30:00,
2013-08-10 20:35:00,61.6,50.5,30.13,WNW,288,2.5,4.6,67,0.00,FEW,,0.00,28.0,WeatherDisplay:10.37,2013-08-10 18:35:00,
2013-08-10 20:40:00,61.5,50.8,30.13,WNW,288,1.3,3.5,68,0.00,FEW,,0.00,28.0,WeatherDisplay:10.37,2013-08-10 18:40:00,
2013-08-10 20:45:00,61.4,51.1,30.13,WNW,288,1.6,3.5,69,0.00,FEW,,0.00,23.0,WeatherDisplay:10.37,2013-08-10 18:45:00,
2013-08-10 20:50:00,61.3,51.0,30.13,WNW,288,1.8,3.5,69,0.00,FEW,,0.00,16.0,WeatherDisplay:10.37,2013-08-10 18:50:00,
2013-08-10 20:55:00,61.1,51.2,30.14,WNW,288,0.0,2.3,70,0.00,FEW,,0.00,12.0,WeatherDisplay:10.37,2013-08-10 18:55:00,
2013-08-10 21:00:00,61.1,51.6,30.13,WNW,288,0.0,0.0,71,0.00,FEW,,0.00,9.0,WeatherDisplay:10.37,2013-08-10 19:00:00,
2013-08-10 21:05:00,61.0,51.5,30.13,WNW,288,0.0,0.0,71,0.00,FEW,,0.00,5.0,WeatherDisplay:10.37,2013-08-10 19:05:00,
2013-08-10 21:10:00,61.0,51.9,30.13,WNW,288,0.0,0.0,72,0.00,FEW,,0.00,0.0,WeatherDisplay:10.37,2013-08-10 19:10:00,
2013-08-10 21:15:00,61.0,51.9,30.13,WNW,288,0.0,0.0,72,0.00,FEW,,0.00,0.0,WeatherDisplay:10.37,2013-08-10 19:15:00,
2013-08-10 21:20:00,60.9,52.2,30.13,WNW,288,0.0,0.0,73,0.00,FEW,,0.00,0.0,WeatherDisplay:10.37,2013-08-10 19:20:00,
2013-08-10 21:25:00,60.9,52.2,30.13,WNW,288,0.0,0.0,73,0.00,FEW,,0.00,0.0,WeatherDisplay:10.37,2013-08-10 19:25:00,
2013-08-10 21:30:00,60.8,52.1,30.13,WNW,288,0.0,0.0,73,0.00,CLR,,0.00,0.0,WeatherDisplay:10.37,2013-08-10 19:30:00,
2013-08-10 21:35:00,60.8,52.4,30.13,WNW,288,0.0,0.0,74,0.00,CLR,,0.00,0.0,WeatherDisplay:10.37,2013-08-10 19:35:00,
2013-08-10 21:40:00,60.8,52.4,30.13,WNW,288,0.0,0.0,74,0.00,CLR,,0.00,0.0,WeatherDisplay:10.37,2013-08-10 19:40:00,
2013-08-10 21:45:00,60.8,52.4,30.13,WNW,288,0.0,0.0,74,0.00,CLR,,0.00,0.0,WeatherDisplay:10.37,2013-08-10 19:45:00,
2013-08-10 21:50:00,60.8,52.4,30.13,WNW,288,0.0,3.5,74,0.00,CLR,,0.00,0.0,WeatherDisplay:10.37,2013-08-10 19:50:00,
2013-08-10 21:55:00,60.8,52.4,30.13,WNW,288,0.0,0.0,74,0.00,CLR,,0.00,0.0,WeatherDisplay:10.37,2013-08-10 19:55:00,
2013-08-10 22:00:00,60.8,52.4,30.13,WNW,288,0.0,0.0,74,0.00,CLR,,0.00,0.0,WeatherDisplay:10.37,2013-08-10 20:00:00,
2013-08-10 22:05:00,60.9,52.5,30.13,WNW,288,0.0,0.0,74,0.00,CLR,,0.00,0.0,WeatherDisplay:10.37,2013-08-10 20:05:00,
2013-08-10 22:10:00,60.9,52.5,30.13,WNW,288,0.0,0.0,74,0.00,CLR,,0.00,0.0,WeatherDisplay:10.37,2013-08-10 20:10:00,
2013-08-10 22:15:00,60.9,52.5,30.13,WNW,288,0.0,0.0,74,0.00,CLR,,0.00,0.0,WeatherDisplay:10.37,2013-08-10 20:15:00,
2013-08-10 22:20:00,60.9,52.5,30.13,WNW,288,0.0,0.0,74,0.00,CLR,,0.00,0.0,WeatherDisplay:10.37,2013-08-10 20:20:00,
2013-08-10 22:25:00,60.9,52.5,30.13,WNW,288,0.0,0.0,74,0.00,CLR,,0.00,0.0,WeatherDisplay:10.37,2013-08-10 20:25:00,
2013-08-10 22:30:00,61.0,52.6,30.13,WNW,288,0.0,0.0,74,0.00,CLR,,0.00,0.0,WeatherDisplay:10.37,2013-08-10 20:30:00,
2013-08-10 22:35:00,61.0,53.0,30.13,WNW,288,0.0,0.0,75,0.00,CLR,,0.00,0.0,WeatherDisplay:10.37,2013-08-10 20:35:00,
2013-08-10 22:40:00,61.0,52.6,30.13,WNW,288,0.0,0.0,74,0.00,CLR,,0.00,0.0,WeatherDisplay:10.37,2013-08-10 20:40:00,
2013-08-10 22:45:00,60.9,52.9,30.13,WNW,288,0.0,0.0,75,0.00,CLR,,0.00,0.0,WeatherDisplay:10.37,2013-08-10 20:45:00,
2013-08-10 22:50:00,61.0,53.0,30.13,WNW,288,0.0,0.0,75,0.00,CLR,,0.00,0.0,WeatherDisplay:10.37,2013-08-10 20:50:00,
2013-08-10 22:55:00,61.0,53.0,30.13,WNW,288,0.0,0.0,75,0.00,CLR,,0.00,0.0,WeatherDisplay:10.37,2013-08-10 20:55:00,
2013-08-10 23:00:00,60.9,53.6,30.13,WNW,288,0.0,0.0,77,0.00,CLR,,0.00,0.0,WeatherDisplay:10.37,2013-08-10 21:00:00,
2013-08-10 23:05:00,60.6,53.3,30.13,WNW,288,0.0,0.0,77,0.00,CLR,,0.00,0.0,WeatherDisplay:10.37,2013-08-10 21:05:00,
2013-08-10 23:10:00,60.4,53.5,30.13,WNW,288,0.0,0.0,78,0.00,CLR,,0.00,0.0,WeatherDisplay:10.37,2013-08-10 21:10:00,
2013-08-10 23:15:00,60.2,53.6,30.13,WNW,288,0.0,0.0,79,0.00,CLR,,0.00,0.0,WeatherDisplay:10.37,2013-08-10 21:15:00,
2013-08-10 23:20:00,60.1,53.5,30.13,WNW,288,0.0,0.0,79,0.00,CLR,,0.00,0.0,WeatherDisplay:10.37,2013-08-10 21:20:00,
2013-08-10 23:25:00,60.1,53.5,30.13,WNW,288,0.0,0.0,79,0.00,CLR,,0.00,0.0,WeatherDisplay:10.37,2013-08-10 21:25:00,
2013-08-10 23:30:00,60.0,53.4,30.12,WNW,288,0.0,0.0,79,0.00,CLR,,0.00,0.0,WeatherDisplay:10.37,2013-08-10 21:30:00,
2013-08-10 23:35:00,60.0,53.4,30.12,WNW,288,0.0,0.0,79,0.00,CLR,,0.00,0.0,WeatherDisplay:10.37,2013-08-10 21:35:00,
2013-08-10 23:40:00,60.1,53.5,30.13,WNW,288,0.0,0.0,79,0.00,CLR,,0.00,0.0,WeatherDisplay:10.37,2013-08-10 21:40:00,
2013-08-10 23:45:00,60.1,53.5,30.12,WNW,288,0.0,0.0,79,0.00,CLR,,0.00,0.0,WeatherDisplay:10.37,2013-08-10 21:45:00,
2013-08-10 23:50:00,60.1,53.5,30.12,WNW,288,0.0,0.0,79,0.00,CLR,,0.00,0.0,WeatherDisplay:10.37,2013-08-10 21:50:00,
2013-08-10 23:55:00,60.1,53.5,30.12,WNW,288,0.0,0.0,79,0.00,CLR,,0.00,0.0,WeatherDisplay:10.37,2013-08-10 21:55:00,